Aplin, Arkansas
Current Conditions -  °F | °C
As of 10:53 PM on Friday 31 Oct 2014 (Local Time) from KRUE Reporting Station
Clear Clear  
Wind Chill: 34°   Ceiling: Unl
Heat Index: 38°   Visibility: 10mi
Dew Point: 28°   Wind: 5mph
Humidity: 68%   Direction: NA
Pressure: 30.41"   Gusts: NA
Location:  34.9067°N, 93.0072°W
Report Text: KRUE 010353Z AUTO VRB04KT 10SM CLR 03/M02 A3041 RMK AO2 SLP293 T00331022
Loading
Personal Weather Stations






























Interactive Weather Map
Tropical Storm Tracking
New forecast layout! Learn more

10-Day Weather Forecast

Advertisements
Track Severe Weather on mobile